createdAt,value
2023-04-17T00:00:05.979Z,100.00
2023-04-17T00:01:08.396Z,100.00
2023-04-17T00:02:10.782Z,100.00
2023-04-17T00:03:14.333Z,100.00
2023-04-17T00:04:18.208Z,100.00
2023-04-17T00:05:23.356Z,100.00
2023-04-17T00:06:27.378Z,100.00
2023-04-17T00:07:29.571Z,100.00
2023-04-17T00:08:32.751Z,100.00
2023-04-17T00:09:34.865Z,100.00
2023-04-17T00:10:37.055Z,100.00
2023-04-17T00:11:39.254Z,100.00
2023-04-17T00:12:41.402Z,100.00
2023-04-17T00:13:44.071Z,100.00
2023-04-17T00:14:46.227Z,100.00
2023-04-17T00:15:48.369Z,100.00
2023-04-17T00:16:50.791Z,100.00
2023-04-17T00:17:53.029Z,100.00
2023-04-17T00:18:55.806Z,100.00
2023-04-17T00:19:57.997Z,100.00
2023-04-17T00:21:00.292Z,100.00
2023-04-17T00:22:02.512Z,100.00
2023-04-17T00:23:04.757Z,100.00
2023-04-17T00:24:07.304Z,100.00
2023-04-17T00:25:12.864Z,100.00
2023-04-17T00:26:15.856Z,100.00
2023-04-17T00:27:18.793Z,100.00
2023-04-17T00:28:21.080Z,100.00
2023-04-17T00:29:23.325Z,100.00
2023-04-17T00:30:25.669Z,100.00
2023-04-17T00:31:28.522Z,100.00
2023-04-17T00:32:31.270Z,100.00
2023-04-17T00:33:33.842Z,100.00
2023-04-17T00:34:36.062Z,100.00
2023-04-17T00:35:38.241Z,100.00
2023-04-17T00:36:40.650Z,100.00
2023-04-17T00:37:42.910Z,100.00
2023-04-17T00:38:45.054Z,100.00
2023-04-17T00:39:47.187Z,100.00
2023-04-17T00:40:51.523Z,100.00
2023-04-17T00:41:53.677Z,100.00
2023-04-17T00:43:02.719Z,100.00
2023-04-17T00:44:04.930Z,100.00
2023-04-17T00:45:10.868Z,100.00
2023-04-17T00:46:13.661Z,100.00
2023-04-17T00:47:16.096Z,100.00
2023-04-17T00:48:18.733Z,100.00
2023-04-17T00:49:22.135Z,100.00
2023-04-17T00:50:24.879Z,100.00
2023-04-17T00:51:27.958Z,100.00
2023-04-17T00:52:30.811Z,100.00
2023-04-17T00:53:33.862Z,100.00
2023-04-17T00:54:36.113Z,100.00
2023-04-17T00:55:39.655Z,100.00
2023-04-17T00:56:43.959Z,100.00
2023-04-17T00:57:48.221Z,100.00
2023-04-17T00:58:51.125Z,100.00
2023-04-17T00:59:54.365Z,100.00
2023-04-17T01:00:56.604Z,100.00
2023-04-17T01:01:59.773Z,100.00
2023-04-17T01:03:02.881Z,100.00
2023-04-17T01:04:05.897Z,100.00
2023-04-17T01:05:08.707Z,100.00
2023-04-17T01:06:11.856Z,100.00
2023-04-17T01:07:18.291Z,100.00
2023-04-17T01:08:20.618Z,100.00
2023-04-17T01:09:23.136Z,100.00
2023-04-17T01:10:25.305Z,100.00
2023-04-17T01:11:28.180Z,100.00
2023-04-17T01:12:31.736Z,100.00
2023-04-17T01:13:34.215Z,100.00
2023-04-17T01:14:36.551Z,100.00
2023-04-17T01:15:38.776Z,100.00
2023-04-17T01:16:42.098Z,100.00
2023-04-17T01:17:44.351Z,100.00
2023-04-17T01:18:48.335Z,100.00
2023-04-17T01:19:50.767Z,100.00
2023-04-17T01:20:52.928Z,100.00
2023-04-17T01:21:55.225Z,100.00
2023-04-17T01:23:01.399Z,100.00
2023-04-17T01:24:04.057Z,100.00
2023-04-17T01:25:06.962Z,100.00
2023-04-17T01:26:17.662Z,100.00
2023-04-17T01:27:22.408Z,100.00
2023-04-17T01:28:24.686Z,100.00
2023-04-17T01:29:26.868Z,100.00
2023-04-17T01:30:30.378Z,100.00
2023-04-17T01:31:38.444Z,100.00
2023-04-17T01:32:40.657Z,100.00
2023-04-17T01:33:42.929Z,100.00
2023-04-17T01:34:45.319Z,100.00
2023-04-17T01:35:47.462Z,100.00
2023-04-17T01:36:49.676Z,100.00
2023-04-17T01:37:52.210Z,100.00
2023-04-17T01:38:54.419Z,100.00
2023-04-17T01:39:57.991Z,100.00
2023-04-17T01:41:08.136Z,100.00
2023-04-17T01:42:10.377Z,100.00
2023-04-17T01:43:12.562Z,100.00
2023-04-17T01:44:14.847Z,100.00
2023-04-17T01:45:17.192Z,100.00
2023-04-17T01:46:19.388Z,100.00
2023-04-17T01:47:21.628Z,100.00
2023-04-17T01:48:23.812Z,100.00
2023-04-17T01:49:26.276Z,100.00
2023-04-17T01:50:28.646Z,100.00
2023-04-17T01:51:31.423Z,100.00
2023-04-17T01:52:33.619Z,100.00
2023-04-17T01:53:38.082Z,100.00
2023-04-17T01:54:40.236Z,100.00
2023-04-17T01:55:42.362Z,100.00
2023-04-17T01:56:44.537Z,100.00
2023-04-17T01:57:47.675Z,100.00
2023-04-17T01:58:49.874Z,100.00
2023-04-17T01:59:52.017Z,100.00
2023-04-17T02:00:54.187Z,100.00
2023-04-17T02:01:57.261Z,100.00
2023-04-17T02:03:00.232Z,100.00
2023-04-17T02:04:02.761Z,100.00
2023-04-17T02:05:05.553Z,100.00
2023-04-17T02:06:07.693Z,100.00
2023-04-17T02:07:09.827Z,100.00
2023-04-17T02:08:12.060Z,100.00
2023-04-17T02:09:14.256Z,100.00
2023-04-17T02:10:16.427Z,100.00
2023-04-17T02:11:18.578Z,100.00
2023-04-17T02:12:21.311Z,100.00
2023-04-17T02:13:25.371Z,100.00
2023-04-17T02:14:29.619Z,100.00
2023-04-17T02:15:32.717Z,100.00
2023-04-17T02:16:35.197Z,100.00
2023-04-17T02:17:37.465Z,100.00
2023-04-17T02:18:40.911Z,100.00
2023-04-17T02:19:43.086Z,100.00
2023-04-17T02:20:45.233Z,100.00
2023-04-17T02:21:47.431Z,100.00
2023-04-17T02:22:49.682Z,100.00
2023-04-17T02:23:51.853Z,100.00
2023-04-17T02:24:54.568Z,100.00
2023-04-17T02:25:56.948Z,100.00
2023-04-17T02:26:59.158Z,100.00
2023-04-17T02:28:01.589Z,100.00
2023-04-17T02:29:03.879Z,100.00
2023-04-17T02:30:07.054Z,100.00
2023-04-17T02:31:09.516Z,100.00
2023-04-17T02:32:11.755Z,100.00
2023-04-17T02:33:14.032Z,100.00
2023-04-17T02:34:16.646Z,100.00
2023-04-17T02:35:22.086Z,100.00
2023-04-17T02:36:26.408Z,100.00
2023-04-17T02:37:28.557Z,100.00
2023-04-17T02:38:31.061Z,100.00
2023-04-17T02:39:33.814Z,100.00
2023-04-17T02:40:36.272Z,100.00
2023-04-17T02:41:38.443Z,100.00
2023-04-17T02:42:42.666Z,100.00
2023-04-17T02:43:44.882Z,100.00
2023-04-17T02:44:47.009Z,100.00
2023-04-17T02:45:49.149Z,100.00
2023-04-17T02:46:51.368Z,100.00
2023-04-17T02:47:53.695Z,100.00
2023-04-17T02:48:56.112Z,100.00
2023-04-17T02:50:00.226Z,100.00
2023-04-17T02:51:02.507Z,100.00
2023-04-17T02:52:05.762Z,100.00
2023-04-17T02:53:08.912Z,100.00
2023-04-17T02:54:11.542Z,100.00
2023-04-17T02:55:13.882Z,100.00
2023-04-17T02:56:17.997Z,100.00
2023-04-17T02:57:20.309Z,100.00
2023-04-17T02:58:22.501Z,100.00
2023-04-17T02:59:26.406Z,100.00
2023-04-17T03:00:29.218Z,100.00
2023-04-17T03:01:31.544Z,100.00
2023-04-17T03:02:34.917Z,100.00
2023-04-17T03:03:38.842Z,100.00
2023-04-17T03:04:44.052Z,100.00
2023-04-17T03:05:46.189Z,100.00
2023-04-17T03:06:48.335Z,100.00
2023-04-17T03:07:51.485Z,100.00
2023-04-17T03:08:53.988Z,100.00
2023-04-17T03:09:57.598Z,100.00
2023-04-17T03:10:59.789Z,100.00
2023-04-17T03:12:02.137Z,100.00
2023-04-17T03:13:04.588Z,100.00
2023-04-17T03:14:08.425Z,100.00
2023-04-17T03:15:10.970Z,100.00
2023-04-17T03:16:13.229Z,100.00
2023-04-17T03:17:15.872Z,100.00
2023-04-17T03:18:18.050Z,100.00
2023-04-17T03:19:20.390Z,100.00
2023-04-17T03:20:22.786Z,100.00
2023-04-17T03:21:25.114Z,100.00
2023-04-17T03:22:27.817Z,100.00
2023-04-17T03:23:30.028Z,100.00
2023-04-17T03:24:32.443Z,100.00
2023-04-17T03:25:36.083Z,100.00
2023-04-17T03:26:38.600Z,100.00
2023-04-17T03:27:45.884Z,100.00
2023-04-17T03:28:49.562Z,100.00
2023-04-17T03:29:52.205Z,100.00
2023-04-17T03:30:57.889Z,100.00
2023-04-17T03:32:00.124Z,100.00
2023-04-17T03:33:02.940Z,100.00
2023-04-17T03:34:07.684Z,100.00
2023-04-17T03:35:10.028Z,100.00
2023-04-17T03:36:12.206Z,100.00
2023-04-17T03:37:14.669Z,100.00
2023-04-17T03:38:18.046Z,100.00
2023-04-17T03:39:20.642Z,100.00
2023-04-17T03:40:22.894Z,100.00
2023-04-17T03:41:25.083Z,100.00
2023-04-17T03:42:27.545Z,100.00
2023-04-17T03:43:29.699Z,100.00
2023-04-17T03:44:31.856Z,100.00
2023-04-17T03:45:34.122Z,100.00
2023-04-17T03:46:37.647Z,100.00
2023-04-17T03:47:40.216Z,100.00
2023-04-17T03:48:42.828Z,100.00
2023-04-17T03:49:45.258Z,100.00
2023-04-17T03:50:48.830Z,100.00
2023-04-17T03:51:51.377Z,100.00
2023-04-17T03:52:56.165Z,100.00
2023-04-17T03:54:01.160Z,100.00
2023-04-17T03:55:04.087Z,100.00
2023-04-17T03:56:06.710Z,100.00
2023-04-17T03:57:12.840Z,100.00
2023-04-17T03:58:14.993Z,100.00
2023-04-17T03:59:17.182Z,100.00
2023-04-17T04:00:23.881Z,100.00
2023-04-17T04:01:32.730Z,100.00
2023-04-17T04:02:43.921Z,100.00
2023-04-17T04:03:46.428Z,100.00
2023-04-17T04:04:50.481Z,100.00
2023-04-17T04:05:52.978Z,100.00
2023-04-17T04:06:57.548Z,100.00
2023-04-17T04:08:01.250Z,100.00
2023-04-17T04:09:13.622Z,100.00
2023-04-17T04:10:15.957Z,100.00
2023-04-17T04:11:18.488Z,100.00
2023-04-17T04:12:22.031Z,100.00
2023-04-17T04:13:24.164Z,100.00
2023-04-17T04:14:31.197Z,100.00
2023-04-17T04:15:33.374Z,100.00
2023-04-17T04:16:38.729Z,100.00
2023-04-17T04:17:45.882Z,100.00
2023-04-17T04:18:48.358Z,100.00
2023-04-17T04:19:51.842Z,100.00
2023-04-17T04:20:54.873Z,100.00
2023-04-17T04:22:06.690Z,100.00
2023-04-17T04:23:16.886Z,100.00
2023-04-17T04:24:20.336Z,100.00
2023-04-17T04:25:23.281Z,100.00
2023-04-17T04:26:40.919Z,100.00
2023-04-17T04:27:49.580Z,100.00
2023-04-17T04:28:56.703Z,100.00
2023-04-17T04:30:10.437Z,100.00
2023-04-17T04:31:18.773Z,100.00
2023-04-17T04:32:21.867Z,100.00
2023-04-17T04:33:25.590Z,100.00
2023-04-17T04:34:29.961Z,100.00
2023-04-17T04:35:32.192Z,100.00
2023-04-17T04:36:36.445Z,100.00
2023-04-17T04:37:50.145Z,100.00
2023-04-17T04:38:52.594Z,100.00
2023-04-17T04:40:11.072Z,100.00
2023-04-17T04:41:17.704Z,100.00
2023-04-17T04:42:23.004Z,100.00
2023-04-17T04:43:42.329Z,100.00
2023-04-17T04:44:45.291Z,100.00
2023-04-17T04:45:48.004Z,100.00
2023-04-17T04:46:52.969Z,100.00
2023-04-17T04:47:55.623Z,100.00
2023-04-17T04:48:59.041Z,100.00
2023-04-17T04:50:02.314Z,100.00
2023-04-17T04:51:04.580Z,100.00
2023-04-17T04:52:07.202Z,100.00
2023-04-17T04:53:09.693Z,100.00
2023-04-17T04:54:18.427Z,100.00
2023-04-17T04:55:26.725Z,100.00
2023-04-17T04:56:33.114Z,100.00
2023-04-17T04:57:36.366Z,100.00
2023-04-17T04:58:38.726Z,100.00
2023-04-17T04:59:40.951Z,100.00
2023-04-17T05:01:18.736Z,100.00
2023-04-17T05:02:21.856Z,100.00
2023-04-17T05:03:24.349Z,100.00
2023-04-17T05:04:28.361Z,100.00
2023-04-17T05:05:35.887Z,100.00
2023-04-17T05:06:38.681Z,100.00
2023-04-17T05:07:40.928Z,100.00
2023-04-17T05:08:46.509Z,100.00
2023-04-17T05:09:50.331Z,100.00
2023-04-17T05:10:52.778Z,100.00
2023-04-17T05:11:55.092Z,100.00
2023-04-17T05:12:57.792Z,100.00
2023-04-17T05:13:59.957Z,100.00
2023-04-17T05:15:06.855Z,100.00
2023-04-17T05:16:09.176Z,100.00
2023-04-17T05:17:11.389Z,100.00
2023-04-17T05:18:14.327Z,100.00
2023-04-17T05:19:17.024Z,100.00
2023-04-17T05:20:28.407Z,100.00
2023-04-17T05:21:33.394Z,100.00
2023-04-17T05:22:36.987Z,100.00
2023-04-17T05:23:44.299Z,100.00
2023-04-17T05:24:46.576Z,100.00
2023-04-17T05:25:49.272Z,100.00
2023-04-17T05:26:51.762Z,100.00
2023-04-17T05:27:54.011Z,100.00
2023-04-17T05:28:56.873Z,100.00
2023-04-17T05:30:02.674Z,100.00
2023-04-17T05:31:06.458Z,100.00
2023-04-17T05:32:15.051Z,100.00
2023-04-17T05:33:28.374Z,100.00
2023-04-17T05:34:35.329Z,100.00
2023-04-17T05:35:38.874Z,100.00
2023-04-17T05:36:42.296Z,100.00
2023-04-17T05:37:44.477Z,100.00
2023-04-17T05:38:46.648Z,100.00
2023-04-17T05:39:48.809Z,100.00
2023-04-17T05:40:53.079Z,100.00
2023-04-17T05:41:55.283Z,100.00
2023-04-17T05:42:57.405Z,100.00
2023-04-17T05:43:59.747Z,100.00
2023-04-17T05:45:03.577Z,100.00
2023-04-17T05:46:05.985Z,100.00
2023-04-17T05:47:08.209Z,100.00
2023-04-17T05:48:12.314Z,100.00
2023-04-17T05:49:14.532Z,100.00
2023-04-17T05:50:17.247Z,100.00
2023-04-17T05:51:19.681Z,100.00
2023-04-17T05:52:21.832Z,100.00
2023-04-17T05:53:23.990Z,100.00
2023-04-17T05:54:30.673Z,100.00
2023-04-17T05:55:33.815Z,100.00
2023-04-17T05:56:37.946Z,100.00
2023-04-17T05:57:40.732Z,100.00
2023-04-17T05:58:42.867Z,100.00
2023-04-17T05:59:45.533Z,100.00
2023-04-17T06:00:47.827Z,100.00
2023-04-17T06:01:52.960Z,100.00
2023-04-17T06:02:57.419Z,100.00
2023-04-17T06:04:10.821Z,100.00
2023-04-17T06:05:13.395Z,100.00
2023-04-17T06:06:15.918Z,100.00
2023-04-17T06:07:18.081Z,100.00
2023-04-17T06:08:20.216Z,100.00
2023-04-17T06:09:25.655Z,100.00
2023-04-17T06:10:28.151Z,100.00
2023-04-17T06:11:30.351Z,100.00
2023-04-17T06:12:33.563Z,100.00
2023-04-17T06:13:37.091Z,100.00
2023-04-17T06:14:40.170Z,100.00
2023-04-17T06:15:43.997Z,100.00
2023-04-17T06:16:46.155Z,100.00
2023-04-17T06:17:51.683Z,100.00
2023-04-17T06:18:53.857Z,100.00
2023-04-17T06:19:56.274Z,100.00
2023-04-17T06:20:58.450Z,100.00
2023-04-17T06:22:03.385Z,100.00
2023-04-17T06:23:05.569Z,100.00
2023-04-17T06:24:08.600Z,100.00
2023-04-17T06:25:10.775Z,100.00
2023-04-17T06:26:13.253Z,100.00
2023-04-17T06:27:15.457Z,100.00
2023-04-17T06:28:17.831Z,100.00
2023-04-17T06:29:20.145Z,100.00
2023-04-17T06:30:23.985Z,100.00
2023-04-17T06:31:29.286Z,100.00
2023-04-17T06:32:31.877Z,100.00
2023-04-17T06:33:34.044Z,100.00
2023-04-17T06:34:41.341Z,100.00
2023-04-17T06:35:49.433Z,100.00
2023-04-17T06:37:08.134Z,100.00
2023-04-17T06:38:13.156Z,100.00
2023-04-17T06:39:15.851Z,100.00
2023-04-17T06:40:18.322Z,100.00
2023-04-17T06:41:20.802Z,100.00
2023-04-17T06:42:22.963Z,100.00
2023-04-17T06:43:34.161Z,100.00
2023-04-17T06:44:46.551Z,100.00
2023-04-17T06:45:49.045Z,100.00
2023-04-17T06:46:52.860Z,100.00
2023-04-17T06:47:55.281Z,100.00
2023-04-17T06:48:59.548Z,100.00
2023-04-17T06:50:04.398Z,100.00
2023-04-17T06:51:07.310Z,100.00
2023-04-17T06:52:09.474Z,100.00
2023-04-17T06:53:11.604Z,100.00
2023-04-17T06:54:14.171Z,100.00
2023-04-17T06:55:17.088Z,100.00
2023-04-17T06:56:19.609Z,100.00
2023-04-17T06:57:22.377Z,100.00
2023-04-17T06:58:24.516Z,100.00
2023-04-17T06:59:26.673Z,100.00
2023-04-17T07:00:28.872Z,100.00
2023-04-17T07:01:31.476Z,100.00
2023-04-17T07:02:34.902Z,100.00
2023-04-17T07:03:38.935Z,100.00
2023-04-17T07:04:41.216Z,100.00
2023-04-17T07:05:46.594Z,100.00
2023-04-17T07:06:48.886Z,100.00
2023-04-17T07:07:51.028Z,100.00
2023-04-17T07:08:55.425Z,100.00
2023-04-17T07:09:57.835Z,100.00
2023-04-17T07:11:01.206Z,100.00
2023-04-17T07:12:06.200Z,100.00
2023-04-17T07:13:08.692Z,100.00
2023-04-17T07:14:12.723Z,100.00
2023-04-17T07:15:15.561Z,100.00
2023-04-17T07:16:17.763Z,100.00
2023-04-17T07:17:20.049Z,100.00
2023-04-17T07:18:22.611Z,100.00
2023-04-17T07:19:24.993Z,100.00
2023-04-17T07:20:27.239Z,100.00
2023-04-17T07:21:29.396Z,100.00
2023-04-17T07:22:31.764Z,100.00
2023-04-17T07:23:33.897Z,100.00
2023-04-17T07:24:36.144Z,100.00
2023-04-17T07:25:38.321Z,100.00
2023-04-17T07:26:43.200Z,100.00
2023-04-17T07:27:45.351Z,100.00
2023-04-17T07:28:48.363Z,100.00
2023-04-17T07:29:54.620Z,100.00
2023-04-17T07:30:58.179Z,100.00
2023-04-17T07:32:00.584Z,100.00
2023-04-17T07:33:03.096Z,100.00
2023-04-17T07:34:05.365Z,100.00
2023-04-17T07:35:07.876Z,100.00
2023-04-17T07:36:11.815Z,100.00
2023-04-17T07:37:15.502Z,100.00
2023-04-17T07:38:17.643Z,100.00
2023-04-17T07:39:19.953Z,100.00
2023-04-17T07:40:22.152Z,100.00
2023-04-17T07:41:24.415Z,100.00
2023-04-17T07:42:26.569Z,100.00
2023-04-17T07:43:28.841Z,100.00
2023-04-17T07:44:31.045Z,100.00
2023-04-17T07:45:33.777Z,100.00
2023-04-17T07:46:36.148Z,100.00
2023-04-17T07:47:38.405Z,100.00
2023-04-17T07:48:40.755Z,100.00
2023-04-17T07:49:46.523Z,100.00
2023-04-17T07:50:49.924Z,100.00
2023-04-17T07:51:52.390Z,100.00
2023-04-17T07:52:54.566Z,100.00
2023-04-17T07:53:56.798Z,100.00
2023-04-17T07:55:37.885Z,100.00
2023-04-17T07:56:40.141Z,100.00
2023-04-17T07:57:46.979Z,100.00
2023-04-17T07:58:52.036Z,100.00
2023-04-17T07:59:54.310Z,100.00
2023-04-17T08:00:56.564Z,100.00
2023-04-17T08:01:58.810Z,100.00
2023-04-17T08:03:02.151Z,100.00
2023-04-17T08:04:05.167Z,100.00
2023-04-17T08:05:08.275Z,100.00
2023-04-17T08:06:11.670Z,100.00
2023-04-17T08:07:14.449Z,100.00
2023-04-17T08:08:16.606Z,100.00
2023-04-17T08:09:18.817Z,100.00
2023-04-17T08:10:21.120Z,100.00
2023-04-17T08:11:23.311Z,100.00
2023-04-17T08:12:25.433Z,100.00
2023-04-17T08:13:30.484Z,100.00
2023-04-17T08:14:33.149Z,100.00
2023-04-17T08:15:39.549Z,100.00
2023-04-17T08:16:42.031Z,100.00
2023-04-17T08:17:44.387Z,100.00
2023-04-17T08:18:46.792Z,100.00
2023-04-17T08:19:57.666Z,100.00
2023-04-17T08:20:59.924Z,100.00
2023-04-17T08:22:04.201Z,100.00
2023-04-17T08:23:07.223Z,100.00
2023-04-17T08:24:09.483Z,100.00
2023-04-17T08:25:12.483Z,100.00
2023-04-17T08:26:14.711Z,100.00
2023-04-17T08:27:16.865Z,100.00
2023-04-17T08:28:19.023Z,100.00
2023-04-17T08:29:21.171Z,100.00
2023-04-17T08:30:23.791Z,100.00
2023-04-17T08:31:26.787Z,100.00
2023-04-17T08:32:29.064Z,100.00
2023-04-17T08:33:31.690Z,100.00
2023-04-17T08:34:33.901Z,100.00
2023-04-17T08:35:36.316Z,100.00
2023-04-17T08:36:38.496Z,100.00
2023-04-17T08:37:42.328Z,100.00
2023-04-17T08:38:45.156Z,100.00
2023-04-17T08:39:52.343Z,100.00
2023-04-17T08:40:59.275Z,100.00
2023-04-17T08:42:06.078Z,100.00
2023-04-17T08:43:20.091Z,100.00
2023-04-17T08:44:22.241Z,100.00
2023-04-17T08:45:24.750Z,100.00
2023-04-17T08:46:27.744Z,100.00
2023-04-17T08:47:30.150Z,95.58
2023-04-17T08:48:32.362Z,88.21
2023-04-17T08:49:36.018Z,81.22
2023-04-17T08:50:38.322Z,76.29
2023-04-17T08:51:41.548Z,75.35
2023-04-17T08:52:48.535Z,72.51
2023-04-17T08:53:50.702Z,74.75
2023-04-17T08:54:52.890Z,68.92
2023-04-17T08:55:55.065Z,67.28
2023-04-17T08:56:57.789Z,65.42
2023-04-17T08:58:06.142Z,60.18
2023-04-17T08:59:08.279Z,57.98
2023-04-17T09:00:12.234Z,53.83
2023-04-17T09:01:19.823Z,51.83
2023-04-17T09:02:22.855Z,48.19
2023-04-17T09:03:40.230Z,47.64
2023-04-17T09:04:44.622Z,44.90
2023-04-17T09:05:48.385Z,44.84
2023-04-17T09:06:54.355Z,43.97
2023-04-17T09:08:07.495Z,43.53
2023-04-17T09:09:09.804Z,45.00
2023-04-17T09:10:12.121Z,43.83
2023-04-17T09:11:17.545Z,44.52
2023-04-17T09:12:21.184Z,45.65
2023-04-17T09:13:25.612Z,46.95
2023-04-17T09:14:31.506Z,45.99
2023-04-17T09:15:34.904Z,47.74
2023-04-17T09:16:54.031Z,44.29
2023-04-17T09:17:56.335Z,44.80
2023-04-17T09:19:06.867Z,43.53
2023-04-17T09:20:12.160Z,43.35
2023-04-17T09:21:17.088Z,41.79
2023-04-17T09:22:21.165Z,41.56
2023-04-17T09:23:23.535Z,40.62
2023-04-17T09:24:36.369Z,39.07
2023-04-17T09:25:38.568Z,39.25
2023-04-17T09:26:40.796Z,39.39
2023-04-17T09:27:43.047Z,40.04
2023-04-17T09:29:09.052Z,38.06
2023-04-17T09:30:13.354Z,36.88
2023-04-17T09:31:18.457Z,36.69
2023-04-17T09:32:20.675Z,36.18
2023-04-17T09:33:22.789Z,36.29
2023-04-17T09:34:24.896Z,36.85
2023-04-17T09:35:27.253Z,38.33
2023-04-17T09:36:31.270Z,38.59
2023-04-17T09:37:51.893Z,36.36
2023-04-17T09:38:54.430Z,36.88
2023-04-17T09:40:00.257Z,35.26
2023-04-17T09:41:02.442Z,36.61
2023-04-17T09:42:06.224Z,33.24
2023-04-17T09:43:10.687Z,32.95
2023-04-17T09:44:25.723Z,32.97
2023-04-17T09:45:35.314Z,33.35
2023-04-17T09:46:48.414Z,33.94
2023-04-17T09:47:56.202Z,35.88
2023-04-17T09:49:33.920Z,34.81
2023-04-17T09:50:38.634Z,35.04
2023-04-17T09:51:41.876Z,34.99
2023-04-17T09:52:47.411Z,35.96
2023-04-17T09:53:49.795Z,35.41
2023-04-17T09:54:53.751Z,37.94
2023-04-17T09:55:56.146Z,38.36
2023-04-17T09:56:59.220Z,38.24
2023-04-17T09:58:03.552Z,39.12
2023-04-17T09:59:06.776Z,38.37
2023-04-17T10:00:15.070Z,38.69
2023-04-17T10:01:17.847Z,38.89
2023-04-17T10:02:21.634Z,37.57
2023-04-17T10:03:24.587Z,37.36
2023-04-17T10:04:28.989Z,39.55
2023-04-17T10:05:32.464Z,39.05
2023-04-17T10:06:36.020Z,38.29
2023-04-17T10:07:39.160Z,37.75
2023-04-17T10:08:41.820Z,36.98
2023-04-17T10:09:45.735Z,36.56
2023-04-17T10:10:50.763Z,36.99
2023-04-17T10:11:54.116Z,36.59
2023-04-17T10:12:59.223Z,37.33
2023-04-17T10:14:13.692Z,35.90
2023-04-17T10:15:16.702Z,36.69
2023-04-17T10:16:18.895Z,36.55
2023-04-17T10:17:31.381Z,36.69
2023-04-17T10:18:33.896Z,35.03
2023-04-17T10:19:36.693Z,32.92
2023-04-17T10:20:39.027Z,33.74
2023-04-17T10:21:41.193Z,34.27
2023-04-17T10:22:44.280Z,36.60
2023-04-17T10:23:46.568Z,35.59
2023-04-17T10:24:53.925Z,34.18
2023-04-17T10:26:27.939Z,34.68
2023-04-17T10:27:32.943Z,35.18
2023-04-17T10:28:57.718Z,36.05
2023-04-17T10:30:02.273Z,35.77
2023-04-17T10:31:04.535Z,34.57
2023-04-17T10:32:10.118Z,35.62
2023-04-17T10:33:21.737Z,37.14
2023-04-17T10:34:37.841Z,38.12
2023-04-17T10:35:40.035Z,36.95
2023-04-17T10:36:42.135Z,36.93
2023-04-17T10:37:47.059Z,36.38
2023-04-17T10:38:49.261Z,36.17
2023-04-17T10:39:54.431Z,37.80
2023-04-17T10:40:56.645Z,37.43
2023-04-17T10:42:06.533Z,37.96
2023-04-17T10:43:13.972Z,38.56
2023-04-17T10:44:18.231Z,39.22
2023-04-17T10:45:20.510Z,40.18
2023-04-17T10:46:26.398Z,38.44
2023-04-17T10:47:35.661Z,37.25
2023-04-17T10:48:45.621Z,36.69
2023-04-17T10:50:00.913Z,35.64
2023-04-17T10:51:29.085Z,36.27
2023-04-17T10:52:35.178Z,35.28
2023-04-17T10:53:41.548Z,35.06
2023-04-17T10:55:05.600Z,34.02
2023-04-17T10:56:09.666Z,34.04
2023-04-17T10:57:11.850Z,34.83
2023-04-17T10:58:14.148Z,34.82
2023-04-17T10:59:18.340Z,35.50
2023-04-17T11:00:27.285Z,36.41
2023-04-17T11:01:37.824Z,35.33
2023-04-17T11:02:40.111Z,35.52
2023-04-17T11:03:42.462Z,36.67
2023-04-17T11:04:44.925Z,36.26
2023-04-17T11:05:47.938Z,35.96
2023-04-17T11:06:52.639Z,36.90
2023-04-17T11:07:55.054Z,37.30
2023-04-17T11:08:58.290Z,38.09
2023-04-17T11:10:01.471Z,38.81
2023-04-17T11:11:03.613Z,40.13
2023-04-17T11:12:06.442Z,40.49
2023-04-17T11:13:08.678Z,40.97
2023-04-17T11:14:14.615Z,40.73
2023-04-17T11:15:17.302Z,40.21
2023-04-17T11:16:22.311Z,40.23
2023-04-17T11:17:24.556Z,39.33
2023-04-17T11:18:26.740Z,37.67
2023-04-17T11:19:28.983Z,37.63
2023-04-17T11:20:33.104Z,37.05
2023-04-17T11:21:42.020Z,36.27
2023-04-17T11:22:44.902Z,34.33
2023-04-17T11:23:53.654Z,34.42
2023-04-17T11:24:55.874Z,34.83
2023-04-17T11:27:01.056Z,35.25
2023-04-17T11:28:06.434Z,34.93
2023-04-17T11:29:19.874Z,33.41
2023-04-17T11:30:27.191Z,32.52
2023-04-17T11:31:29.322Z,31.90
2023-04-17T11:32:36.796Z,31.94
2023-04-17T11:33:39.342Z,32.54
2023-04-17T11:34:41.900Z,33.19
2023-04-17T11:35:44.145Z,32.88
2023-04-17T11:36:53.972Z,32.70
2023-04-17T11:38:20.604Z,32.88
2023-04-17T11:39:25.982Z,33.20
2023-04-17T11:40:30.457Z,33.51
2023-04-17T11:41:39.399Z,33.29
2023-04-17T11:42:45.755Z,31.80
2023-04-17T11:43:47.958Z,33.25
2023-04-17T11:44:50.061Z,31.59
2023-04-17T11:45:54.251Z,31.87
2023-04-17T11:47:00.962Z,32.43
2023-04-17T11:48:03.810Z,32.75
2023-04-17T11:49:06.985Z,31.74
2023-04-17T11:50:09.714Z,31.20
2023-04-17T11:51:13.497Z,31.05
2023-04-17T11:52:17.657Z,31.89
2023-04-17T11:53:20.212Z,31.13
2023-04-17T11:54:26.741Z,30.58
2023-04-17T11:55:33.323Z,30.50
2023-04-17T11:56:35.535Z,31.22
2023-04-17T11:57:43.433Z,31.57
2023-04-17T11:58:56.557Z,30.25
2023-04-17T11:59:58.726Z,30.41
2023-04-17T12:01:04.957Z,30.81
2023-04-17T12:02:08.753Z,30.88
2023-04-17T12:03:36.476Z,30.13
2023-04-17T12:04:40.086Z,30.81
2023-04-17T12:05:42.693Z,31.08
2023-04-17T12:06:44.822Z,31.07
2023-04-17T12:07:46.960Z,32.25
2023-04-17T12:08:54.542Z,32.19
2023-04-17T12:09:57.908Z,32.07
2023-04-17T12:11:00.363Z,32.13
2023-04-17T12:12:06.494Z,32.84
2023-04-17T12:13:10.651Z,32.00
2023-04-17T12:14:13.084Z,31.43
2023-04-17T12:15:15.588Z,32.62
2023-04-17T12:16:17.915Z,31.64
2023-04-17T12:17:21.261Z,31.60
2023-04-17T12:18:23.412Z,31.51
2023-04-17T12:19:27.379Z,31.88
2023-04-17T12:20:29.644Z,32.09
2023-04-17T12:21:31.856Z,32.21
2023-04-17T12:22:33.990Z,31.94
2023-04-17T12:23:36.733Z,32.53
2023-04-17T12:24:38.852Z,30.91
2023-04-17T12:25:43.808Z,31.78
2023-04-17T12:26:47.321Z,31.87
2023-04-17T12:27:49.535Z,31.57
2023-04-17T12:28:52.010Z,31.75
2023-04-17T12:29:54.118Z,31.23
2023-04-17T12:30:56.348Z,31.80
2023-04-17T12:31:58.499Z,32.73
2023-04-17T12:33:00.804Z,32.19
2023-04-17T12:34:02.963Z,33.29
2023-04-17T12:35:05.544Z,33.41
2023-04-17T12:36:08.269Z,32.95
2023-04-17T12:37:10.560Z,31.99
2023-04-17T12:38:13.212Z,31.96
2023-04-17T12:39:15.421Z,31.04
2023-04-17T12:40:24.674Z,31.71
2023-04-17T12:41:27.376Z,32.83
2023-04-17T12:42:31.576Z,31.43
2023-04-17T12:43:38.416Z,31.97
2023-04-17T12:44:40.564Z,32.77
2023-04-17T12:45:45.633Z,33.15
2023-04-17T12:46:47.937Z,33.25
2023-04-17T12:47:50.535Z,33.57
2023-04-17T12:48:58.340Z,33.35
2023-04-17T12:50:00.819Z,33.88
2023-04-17T12:51:03.053Z,34.98
2023-04-17T12:52:05.422Z,34.50
2023-04-17T12:53:08.544Z,35.04
2023-04-17T12:54:11.036Z,35.36
2023-04-17T12:55:13.474Z,36.75
2023-04-17T12:56:15.637Z,36.46
2023-04-17T12:57:17.805Z,36.26
2023-04-17T12:58:19.962Z,36.82
2023-04-17T12:59:22.577Z,37.33
2023-04-17T13:00:24.894Z,37.00
2023-04-17T13:01:27.348Z,36.30
2023-04-17T13:02:29.729Z,37.59
2023-04-17T13:03:32.080Z,38.70
2023-04-17T13:04:34.414Z,37.99
2023-04-17T13:05:36.777Z,37.93
2023-04-17T13:06:39.006Z,38.20
2023-04-17T13:07:41.202Z,38.14
2023-04-17T13:08:43.583Z,38.66
2023-04-17T13:09:46.263Z,38.99
2023-04-17T13:10:48.422Z,39.00
2023-04-17T13:11:50.829Z,40.39
2023-04-17T13:12:53.067Z,41.18
2023-04-17T13:13:55.245Z,41.93
2023-04-17T13:14:57.690Z,42.84
2023-04-17T13:15:59.857Z,43.31
2023-04-17T13:17:02.415Z,42.86
2023-04-17T13:18:04.788Z,42.92
2023-04-17T13:19:06.930Z,43.72
2023-04-17T13:20:10.623Z,44.63
2023-04-17T13:21:12.800Z,46.40
2023-04-17T13:22:16.067Z,48.31
2023-04-17T13:23:18.294Z,49.00
2023-04-17T13:24:20.608Z,48.13
2023-04-17T13:25:22.792Z,46.58
2023-04-17T13:26:25.146Z,48.40
2023-04-17T13:27:27.355Z,48.59
2023-04-17T13:28:29.572Z,48.73
2023-04-17T13:29:31.718Z,48.56